Warning: Javascript must be enabled to use all the features on this page!


Page Loading - Please Wait...

Click to hideNews Bulletins
  • Explore the NEW USGS National Water Dashboard interactive map to access real-time water data from over 13,500 stations nationwide.
  • Full News RSS icon
  • USGS has scheduled planned maintenance to our IT infrastructure, starting Tuesday, June 28, 2022, from 8:00-10:00am Eastern Daylight Time (EDT). During the maintenance period, there will be a short interruption in the availability of the most recent time-series data. Any backlog will be made available following conclusion of the scheduled maintenance.

Peak Streamflow for the Nation

USGS 06762500 Lodgepole Creek at Bushnell, Nebr.

Kimball County, Nebraska
Hydrologic Unit Code 10190016
Latitude  41°13'40", Longitude 103°53'35" NAD83
Drainage area 1,214  square miles
Gage datum 4,843.31 feet above NGVD29
Output formats
Table
Graph
Tab-separated file
peakfq (watstore) format
Reselect output format
Water
Year
Date Gage
Height
(feet)
Stream-
flow
(cfs)
1932 1932-06-27 3.33 1515
1933 1933-08-27 7.00 3,0105
1934 1934-08-08 3.10 1175
1935 1935-06-11 6.30 1,6305
1936 1936-08-01 2.80 90.05
1937 1937-08-18 5.30 6655
1938 1938-09-03 6.00 1,2805
1939 1939-05-31 3.00 1125
1940 1940-09-06 1.98 52.05
1941 1941-06-10 5.20 5625
1942 1942-09-05 1.79 44.05
1943 1943-07-01 2.48 56.05
1944 1944-07-10 3.57 1355
1945 1945-06-23 5.25 5185
1946 1946-05-10 2.30 45.01,5
1947 1947-06-23 2.08 22.05
1948 1948-07-14 7.37 3,9005
1949 1949-05-15 4.852 3345
1950 1950-09-15 9.983 16,5005
1951 1951-09-07 7.23 3,5405
1952 1952-03-24 1.55 24.05
1953 1953-08-01 6.25 1,8505
1954 1954-07-14 3.382 88.05
1955 1955-09-19 7.55 4,5605
1956 1956-02-28 1.72 26.05
1957 1957-07-19 5.04 4945
1958 1958-07-18 4.85 3905
1959 1959-03-30 1.87 35.05
1960 1960-07-07 4.50 2605
1961 1961-06-03 4.26 2065
1962 1962-07-31 4.79 3615
1963 1963-09-08 4.25 2045
1964 1963-11-30 1.342 15.05
1965 1965-06-14 4.52 2785
1966 1966-08-19 6.16 2,0305
1967 1967-06-18 4.71 3105
1968 1968-04-07 1.882 36.05
1969 1969-06-12 2.102 43.05
1970 1970-04-21 1.55 23.05
1971 1971-06-03 4.67 3015
1972 1972-08-23 4.65 2585
1973 1973-03-23 2.102 29.05
1974 1973-11-28 1.632 15.05
1975 1975-08-16 4.28 2105
1976 1976-08-05 2.402 36.05
1977 1977-06-21 4.28 1255
1978 1978-07-06 7.61 5,2705
1979 1979-07-25 4.51 2645
1980 1980-02-21 4.48 2625
1981 1981-07-02 10.063,6 9,3905
1982 1982-06-25 2.726 3875
1983 1983-07-23 3.09 5865
1984 1984-02-12 1.99 1355
1985 1985-09-11 1.202 30.05
1986 1986-06-13 2.18 1795
1987 1987-08-04 2.52 2815
1988 1988-07-18 2.87 4435
1989 1989-04-22 0.762 8.605
1990 1990-08-21 3.31 7155
1991 1991-08-12 2.91 4635
1992 1992-06-15 0.856 7.505
2003 2003-07-29 4.96 18.05
2004 2004-03-07 2.762 0.935
2005 2005-06-25 4.04 8.505
2006 2006-03-27 2.48 0.215
2007 2007   0.005,Bm
2008 2008   0.005,Bm
2009 2009   0.005,Bm
2010 2010-07-05 4.60 15.05
2011 2011-07-19 3.82 6.605
2012 2012   0.005,Bm
2013 2013   0.005,Bm
2014 2014-03-05 5.87 1,1505
2015 2015   0.005,Bm
2016 2016-06-12 4.56 1665
2017 2017-03-01 2.87 3.885
2018 2018-05-19 3.002 6.395
2019 2019-07-07 3.392 19.05
2020 2020-03-09 3.292 5.555
2021 2021-03-21 3.362 10.35
?
  Peak Gage-Height Qualification Codes.
?
  Peak Streamflow Qualification Codes.